createdAt,value
2023-01-22T00:01:05.819Z,26.13
2023-01-22T00:03:32.333Z,25.25
2023-01-22T00:05:58.946Z,30.23
2023-01-22T00:08:25.469Z,30.20
2023-01-22T00:10:53.529Z,27.42
2023-01-22T00:13:21.549Z,29.92
2023-01-22T00:15:48.718Z,30.48
2023-01-22T00:18:15.350Z,31.95
2023-01-22T00:20:45.966Z,37.45
2023-01-22T00:23:12.589Z,32.03
2023-01-22T00:25:39.132Z,26.10
2023-01-22T00:28:06.676Z,32.85
2023-01-22T00:30:33.313Z,33.60
2023-01-22T00:33:00.029Z,27.20
2023-01-22T00:35:26.618Z,26.38
2023-01-22T00:37:53.172Z,29.55
2023-01-22T00:40:20.146Z,30.77
2023-01-22T00:42:46.760Z,30.23
2023-01-22T00:45:14.445Z,27.42
2023-01-22T00:47:41.357Z,33.67
2023-01-22T00:50:08.922Z,27.55
2023-01-22T00:52:35.479Z,25.88
2023-01-22T00:55:01.950Z,26.85
2023-01-22T00:57:28.450Z,29.80
2023-01-22T00:59:55.032Z,30.83
2023-01-22T01:02:21.669Z,19.17
2023-01-22T01:04:48.211Z,32.67
2023-01-22T01:07:14.772Z,22.42
2023-01-22T01:09:41.299Z,30.33
2023-01-22T01:12:07.907Z,27.95
2023-01-22T01:14:34.470Z,19.80
2023-01-22T01:17:01.034Z,25.15
2023-01-22T01:19:27.557Z,28.48
2023-01-22T01:21:54.135Z,19.80
2023-01-22T01:24:20.686Z,29.30
2023-01-22T01:26:47.394Z,30.45
2023-01-22T01:29:13.904Z,26.95
2023-01-22T01:31:40.417Z,30.60
2023-01-22T01:34:07.035Z,24.83
2023-01-22T01:36:48.363Z,26.65
2023-01-22T01:41:42.320Z,21.30
2023-01-22T01:44:17.589Z,22.83
2023-01-22T01:46:46.702Z,24.80
2023-01-22T01:49:38.239Z,21.77
2023-01-22T01:52:08.983Z,24.90
2023-01-22T01:54:36.719Z,21.20
2023-01-22T01:57:14.591Z,23.70
2023-01-22T01:59:42.734Z,21.25
2023-01-22T02:02:09.325Z,20.73
2023-01-22T02:04:35.945Z,25.95
2023-01-22T02:07:04.405Z,22.02
2023-01-22T02:09:31.434Z,24.90
2023-01-22T02:11:58.253Z,24.95
2023-01-22T02:14:30.839Z,18.23
2023-01-22T02:17:12.510Z,26.38
2023-01-22T02:19:40.500Z,20.67
2023-01-22T02:22:27.295Z,24.27
2023-01-22T02:24:54.136Z,20.27
2023-01-22T02:27:20.691Z,25.05
2023-01-22T02:29:47.233Z,21.50
2023-01-22T02:32:13.809Z,27.90
2023-01-22T02:34:40.569Z,25.50
2023-01-22T02:37:07.092Z,21.00
2023-01-22T02:39:33.760Z,27.73
2023-01-22T02:42:03.462Z,25.73
2023-01-22T02:44:29.994Z,23.40
2023-01-22T02:46:56.663Z,24.42
2023-01-22T02:49:23.326Z,27.98
2023-01-22T02:51:49.883Z,26.00
2023-01-22T02:54:16.371Z,20.83
2023-01-22T02:56:42.955Z,24.17
2023-01-22T02:59:09.629Z,22.60
2023-01-22T03:01:36.219Z,24.02
2023-01-22T03:04:04.728Z,20.08
2023-01-22T03:06:31.186Z,21.40
2023-01-22T03:09:00.160Z,22.10
2023-01-22T03:11:29.980Z,19.48
2023-01-22T03:13:57.072Z,25.20
2023-01-22T03:16:24.204Z,24.35
2023-01-22T03:18:50.677Z,21.90
2023-01-22T03:21:17.249Z,20.85
2023-01-22T03:23:46.856Z,23.00
2023-01-22T03:26:13.912Z,20.50
2023-01-22T03:28:40.447Z,23.35
2023-01-22T03:31:07.659Z,23.13
2023-01-22T03:33:34.813Z,24.80
2023-01-22T03:36:06.754Z,25.38
2023-01-22T03:38:33.355Z,26.17
2023-01-22T03:41:08.898Z,21.25
2023-01-22T03:43:35.691Z,19.65
2023-01-22T03:46:12.064Z,21.13
2023-01-22T03:48:39.509Z,24.35
2023-01-22T03:51:08.731Z,18.63
2023-01-22T03:53:35.402Z,24.05
2023-01-22T03:56:04.826Z,21.85
2023-01-22T03:58:32.229Z,19.67
2023-01-22T04:01:02.097Z,16.90
2023-01-22T04:03:29.460Z,20.45
2023-01-22T04:05:56.101Z,23.55
2023-01-22T04:08:22.760Z,17.98
2023-01-22T04:10:49.285Z,22.95
2023-01-22T04:13:15.762Z,21.27
2023-01-22T04:15:45.587Z,23.83
2023-01-22T04:18:12.893Z,23.17
2023-01-22T04:20:39.986Z,21.27
2023-01-22T04:23:07.673Z,23.90
2023-01-22T04:25:35.206Z,26.85
2023-01-22T04:28:02.065Z,19.88
2023-01-22T04:30:28.748Z,26.13
2023-01-22T04:32:55.328Z,23.50
2023-01-22T04:35:22.231Z,23.75
2023-01-22T04:37:48.826Z,19.83
2023-01-22T04:40:15.647Z,22.35
2023-01-22T04:42:42.215Z,21.42
2023-01-22T04:45:09.593Z,17.40
2023-01-22T04:47:40.549Z,22.38
2023-01-22T04:50:07.521Z,21.38
2023-01-22T04:52:34.101Z,24.70
2023-01-22T04:55:00.617Z,25.92
2023-01-22T04:57:27.155Z,21.63
2023-01-22T04:59:53.646Z,20.17
2023-01-22T05:02:20.160Z,20.30
2023-01-22T05:04:46.702Z,18.85
2023-01-22T05:07:13.256Z,21.17
2023-01-22T05:09:39.757Z,22.45
2023-01-22T05:12:06.445Z,21.25
2023-01-22T05:14:32.942Z,17.23
2023-01-22T05:16:59.404Z,17.88
2023-01-22T05:19:26.008Z,20.45
2023-01-22T05:21:52.562Z,22.63
2023-01-22T05:24:19.078Z,19.73
2023-01-22T05:26:45.948Z,20.90
2023-01-22T05:29:12.550Z,19.77
2023-01-22T05:31:39.206Z,22.10
2023-01-22T05:34:05.787Z,21.60
2023-01-22T05:36:32.479Z,24.02
2023-01-22T05:38:59.109Z,22.83
2023-01-22T05:41:25.594Z,22.58
2023-01-22T05:43:52.108Z,20.50
2023-01-22T05:46:18.642Z,20.15
2023-01-22T05:48:45.178Z,20.60
2023-01-22T05:51:11.805Z,20.85
2023-01-22T05:53:38.350Z,19.88
2023-01-22T05:56:06.302Z,22.95
2023-01-22T05:58:33.024Z,17.88
2023-01-22T06:00:59.582Z,18.52
2023-01-22T06:03:26.167Z,21.75
2023-01-22T06:06:00.814Z,15.70
2023-01-22T06:08:28.383Z,23.00
2023-01-22T06:11:01.870Z,20.85
2023-01-22T06:13:28.517Z,21.65
2023-01-22T06:15:55.178Z,22.23
2023-01-22T06:18:22.893Z,20.17
2023-01-22T06:20:49.574Z,18.45
2023-01-22T06:23:16.400Z,19.48
2023-01-22T06:25:43.383Z,17.27
2023-01-22T06:28:10.306Z,21.15
2023-01-22T06:30:37.240Z,20.30
2023-01-22T06:33:04.272Z,20.75
2023-01-22T06:35:30.761Z,21.35
2023-01-22T06:37:57.238Z,22.17
2023-01-22T06:40:23.822Z,21.10
2023-01-22T06:42:50.325Z,19.45
2023-01-22T06:45:16.904Z,20.77
2023-01-22T06:47:44.178Z,18.13
2023-01-22T06:50:11.860Z,18.67
2023-01-22T06:52:38.897Z,16.33
2023-01-22T06:55:05.711Z,18.02
2023-01-22T06:57:32.263Z,17.48
2023-01-22T06:59:59.196Z,19.25
2023-01-22T07:02:25.682Z,19.80
2023-01-22T07:04:52.323Z,11.80
2023-01-22T07:07:18.813Z,17.73
2023-01-22T07:09:45.270Z,17.65
2023-01-22T07:12:11.787Z,18.45
2023-01-22T07:14:38.318Z,19.75
2023-01-22T07:17:04.917Z,16.73
2023-01-22T07:19:31.507Z,21.25
2023-01-22T07:21:58.084Z,18.75
2023-01-22T07:24:24.657Z,17.73
2023-01-22T07:26:51.409Z,16.58
2023-01-22T07:29:17.904Z,19.33
2023-01-22T07:31:47.481Z,17.52
2023-01-22T07:34:16.077Z,22.05
2023-01-22T07:36:42.594Z,18.98
2023-01-22T07:39:09.083Z,18.13
2023-01-22T07:41:35.615Z,15.70
2023-01-22T07:44:02.240Z,18.15
2023-01-22T07:46:28.836Z,19.05
2023-01-22T07:48:55.413Z,16.95
2023-01-22T07:51:22.040Z,17.38
2023-01-22T07:53:48.587Z,22.27
2023-01-22T07:56:15.076Z,20.05
2023-01-22T07:58:41.655Z,19.77
2023-01-22T08:01:08.469Z,20.60
2023-01-22T08:03:35.066Z,19.25
2023-01-22T08:06:01.580Z,17.65
2023-01-22T08:08:28.050Z,18.13
2023-01-22T08:10:58.718Z,15.15
2023-01-22T08:13:25.246Z,18.67
2023-01-22T08:15:51.721Z,17.33
2023-01-22T08:18:20.417Z,18.40
2023-01-22T08:20:48.034Z,19.55
2023-01-22T08:23:14.753Z,19.05
2023-01-22T08:25:41.233Z,13.77
2023-01-22T08:28:07.864Z,18.48
2023-01-22T08:30:45.432Z,15.63
2023-01-22T08:33:12.891Z,17.27
2023-01-22T08:35:39.629Z,17.70
2023-01-22T08:38:06.179Z,15.35
2023-01-22T08:40:32.698Z,20.45
2023-01-22T08:42:59.257Z,21.52
2023-01-22T08:45:25.800Z,20.35
2023-01-22T08:47:58.947Z,16.58
2023-01-22T08:50:26.412Z,17.70
2023-01-22T08:52:55.337Z,19.13
2023-01-22T08:55:21.817Z,17.73
2023-01-22T08:57:55.844Z,16.35
2023-01-22T09:00:23.378Z,22.48
2023-01-22T09:02:49.905Z,16.95
2023-01-22T09:05:16.473Z,16.92
2023-01-22T09:07:43.121Z,20.20
2023-01-22T09:10:10.162Z,16.02
2023-01-22T09:12:36.837Z,19.20
2023-01-22T09:15:03.706Z,13.25
2023-01-22T09:17:30.213Z,20.40
2023-01-22T09:19:56.722Z,17.42
2023-01-22T09:22:23.260Z,17.65
2023-01-22T09:24:49.735Z,13.68
2023-01-22T09:27:16.225Z,18.38
2023-01-22T09:29:42.830Z,18.55
2023-01-22T09:32:09.378Z,17.63
2023-01-22T09:34:35.838Z,18.25
2023-01-22T09:37:02.320Z,18.67
2023-01-22T09:39:28.896Z,18.15
2023-01-22T09:41:58.666Z,24.17
2023-01-22T09:44:35.863Z,16.52
2023-01-22T09:47:11.550Z,14.98
2023-01-22T09:49:59.560Z,15.05
2023-01-22T09:52:29.305Z,18.45
2023-01-22T09:54:56.431Z,14.23
2023-01-22T09:57:31.673Z,15.57
2023-01-22T09:59:58.766Z,15.73
2023-01-22T10:02:37.907Z,17.33
2023-01-22T10:05:19.592Z,16.30
2023-01-22T10:08:05.474Z,16.45
2023-01-22T10:10:33.019Z,17.33
2023-01-22T10:13:19.382Z,17.17
2023-01-22T10:15:47.079Z,18.85
2023-01-22T10:18:30.957Z,19.60
2023-01-22T10:21:00.480Z,19.25
2023-01-22T10:23:27.256Z,20.58
2023-01-22T10:25:59.700Z,18.88
2023-01-22T10:28:28.089Z,15.82
2023-01-22T10:30:54.937Z,19.67
2023-01-22T10:33:23.757Z,19.10
2023-01-22T10:35:52.693Z,17.50
2023-01-22T10:38:27.370Z,17.42
2023-01-22T10:41:03.155Z,20.00
2023-01-22T10:43:37.925Z,16.17
2023-01-22T10:46:24.204Z,17.88
2023-01-22T10:49:01.778Z,18.80
2023-01-22T10:51:34.550Z,22.33
2023-01-22T10:54:01.309Z,20.77
2023-01-22T10:56:34.736Z,20.83
2023-01-22T10:59:23.021Z,20.33
2023-01-22T11:01:57.410Z,24.42
2023-01-22T11:04:29.563Z,19.88
2023-01-22T11:07:04.774Z,19.48
2023-01-22T11:09:41.565Z,16.55
2023-01-22T11:12:16.853Z,18.95
2023-01-22T11:14:45.705Z,20.27
2023-01-22T11:17:23.549Z,18.02
2023-01-22T11:20:11.421Z,19.80
2023-01-22T11:22:43.313Z,18.42
2023-01-22T11:25:11.495Z,20.17
2023-01-22T11:28:04.205Z,18.17
2023-01-22T11:30:56.168Z,17.42
2023-01-22T11:33:48.761Z,18.13
2023-01-22T11:36:40.121Z,17.23
2023-01-22T11:39:29.285Z,16.90
2023-01-22T11:42:08.604Z,17.90
2023-01-22T11:44:41.046Z,16.20
2023-01-22T11:47:13.092Z,17.15
2023-01-22T11:50:14.460Z,19.05
2023-01-22T11:52:44.121Z,17.48
2023-01-22T11:55:41.529Z,19.52
2023-01-22T11:58:33.347Z,20.42
2023-01-22T12:01:09.249Z,22.08
2023-01-22T12:03:55.479Z,22.95
2023-01-22T12:06:24.864Z,20.98
2023-01-22T12:09:19.551Z,18.27
2023-01-22T12:11:58.649Z,19.55
2023-01-22T12:15:03.054Z,17.50
2023-01-22T12:17:38.457Z,18.00
2023-01-22T12:20:04.978Z,18.33
2023-01-22T12:22:52.014Z,19.52
2023-01-22T12:25:39.545Z,20.25
2023-01-22T12:28:13.647Z,22.75
2023-01-22T12:31:02.178Z,20.73
2023-01-22T12:33:36.094Z,16.75
2023-01-22T12:36:05.119Z,26.05
2023-01-22T12:38:50.373Z,20.27
2023-01-22T12:41:50.928Z,19.00
2023-01-22T12:44:27.984Z,19.40
2023-01-22T12:47:03.879Z,20.33
2023-01-22T12:49:30.451Z,15.95
2023-01-22T12:51:57.204Z,20.92
2023-01-22T12:54:26.600Z,21.63
2023-01-22T12:56:57.652Z,20.67
2023-01-22T12:59:48.331Z,24.92
2023-01-22T13:02:27.025Z,22.35
2023-01-22T13:04:54.605Z,22.17
2023-01-22T13:07:38.186Z,17.38
2023-01-22T13:10:24.988Z,22.00
2023-01-22T13:12:54.621Z,20.60
2023-01-22T13:15:25.853Z,17.30
2023-01-22T13:18:07.706Z,23.52
2023-01-22T13:23:05.993Z,18.75
2023-01-22T13:25:33.515Z,21.73
2023-01-22T13:28:00.699Z,19.15
2023-01-22T13:30:29.172Z,20.15
2023-01-22T13:33:15.900Z,20.30
2023-01-22T13:35:44.247Z,20.77
2023-01-22T13:38:19.837Z,20.63
2023-01-22T13:40:51.512Z,22.38
2023-01-22T13:43:20.318Z,24.35
2023-01-22T13:45:46.843Z,18.98
2023-01-22T13:48:18.891Z,19.80
2023-01-22T13:51:06.894Z,22.85
2023-01-22T13:53:43.584Z,17.00
2023-01-22T13:56:18.070Z,17.50
2023-01-22T13:58:49.484Z,17.42
2023-01-22T14:01:34.244Z,18.33
2023-01-22T14:04:06.404Z,19.48
2023-01-22T14:06:47.425Z,17.25
2023-01-22T14:09:44.998Z,20.88
2023-01-22T14:12:19.882Z,21.27
2023-01-22T14:14:47.209Z,18.08
2023-01-22T14:17:31.815Z,18.10
2023-01-22T14:19:58.670Z,16.15
2023-01-22T14:22:25.644Z,21.38
2023-01-22T14:24:52.323Z,22.00
2023-01-22T14:27:25.494Z,21.45
2023-01-22T14:29:54.134Z,22.85
2023-01-22T14:32:20.878Z,19.67
2023-01-22T14:34:47.465Z,21.48
2023-01-22T14:37:17.841Z,23.88
2023-01-22T14:42:11.020Z,20.75
2023-01-22T14:44:37.544Z,22.52
2023-01-22T14:47:04.144Z,19.50
2023-01-22T14:49:31.100Z,21.25
2023-01-22T14:51:57.863Z,20.85
2023-01-22T14:54:24.420Z,19.40
2023-01-22T14:56:50.982Z,21.13
2023-01-22T14:59:19.469Z,21.60
2023-01-22T15:01:47.277Z,19.95
2023-01-22T15:04:13.950Z,24.40
2023-01-22T15:06:40.510Z,20.90
2023-01-22T15:09:07.056Z,20.85
2023-01-22T15:11:33.620Z,24.00
2023-01-22T15:14:00.166Z,23.65
2023-01-22T15:16:26.809Z,20.42
2023-01-22T15:18:54.759Z,22.25
2023-01-22T15:21:21.381Z,20.75
2023-01-22T15:23:48.077Z,22.92
2023-01-22T15:26:25.476Z,20.40
2023-01-22T15:28:52.163Z,23.42
2023-01-22T15:31:18.676Z,19.50
2023-01-22T15:33:45.412Z,17.48
2023-01-22T15:36:12.020Z,22.13
2023-01-22T15:38:38.703Z,18.25
2023-01-22T15:41:07.449Z,17.90
2023-01-22T15:43:34.300Z,24.23
2023-01-22T15:46:00.845Z,23.08
2023-01-22T15:48:27.376Z,20.35
2023-01-22T15:50:53.871Z,18.55
2023-01-22T15:53:20.374Z,20.42
2023-01-22T15:55:50.395Z,21.40
2023-01-22T15:58:16.898Z,28.08
2023-01-22T16:00:43.515Z,28.70
2023-01-22T16:03:13.025Z,23.67
2023-01-22T16:05:39.585Z,21.75
2023-01-22T16:08:06.121Z,27.27
2023-01-22T16:10:34.595Z,21.23
2023-01-22T16:13:01.174Z,22.65
2023-01-22T16:15:27.797Z,23.58
2023-01-22T16:17:54.877Z,23.48
2023-01-22T16:20:21.642Z,29.15
2023-01-22T16:22:48.255Z,27.85
2023-01-22T16:25:17.817Z,26.25
2023-01-22T16:27:44.694Z,22.85
2023-01-22T16:30:12.520Z,21.17
2023-01-22T16:32:39.406Z,23.50
2023-01-22T16:35:06.382Z,29.63
2023-01-22T16:37:32.959Z,23.50
2023-01-22T16:39:59.557Z,20.40
2023-01-22T16:42:26.149Z,34.45
2023-01-22T16:44:55.549Z,25.30
2023-01-22T16:47:22.061Z,30.15
2023-01-22T16:49:48.625Z,26.45
2023-01-22T16:52:22.448Z,27.08
2023-01-22T16:54:50.099Z,24.63
2023-01-22T16:57:17.881Z,27.73
2023-01-22T16:59:44.411Z,27.08
2023-01-22T17:02:16.254Z,28.88
2023-01-22T17:04:43.375Z,29.77
2023-01-22T17:07:20.460Z,37.53
2023-01-22T17:09:54.378Z,41.70
2023-01-22T17:12:20.942Z,40.42
2023-01-22T17:14:47.406Z,44.85
2023-01-22T17:17:13.952Z,45.50
2023-01-22T17:19:40.515Z,33.03
2023-01-22T17:22:06.998Z,25.80
2023-01-22T17:24:33.547Z,33.80
2023-01-22T17:27:00.047Z,32.28
2023-01-22T17:29:26.581Z,27.88
2023-01-22T17:31:53.205Z,29.08
2023-01-22T17:34:19.843Z,29.45
2023-01-22T17:36:46.379Z,22.95
2023-01-22T17:39:15.543Z,23.25
2023-01-22T17:41:42.507Z,25.48
2023-01-22T17:44:09.466Z,27.38
2023-01-22T17:46:36.349Z,27.58
2023-01-22T17:49:03.375Z,29.90
2023-01-22T17:51:31.321Z,31.42
2023-01-22T17:53:59.737Z,33.60
2023-01-22T17:56:30.364Z,33.42
2023-01-22T17:58:59.881Z,29.25
2023-01-22T18:01:28.651Z,27.35
2023-01-22T18:04:00.899Z,39.45
2023-01-22T18:06:27.990Z,29.23
2023-01-22T18:08:55.297Z,33.58
2023-01-22T18:11:24.748Z,30.02
2023-01-22T18:13:51.262Z,25.65
2023-01-22T18:16:18.833Z,30.38
2023-01-22T18:18:45.511Z,29.73
2023-01-22T18:21:15.314Z,32.55
2023-01-22T18:23:42.942Z,34.10
2023-01-22T18:26:10.117Z,28.48
2023-01-22T18:28:36.920Z,36.35
2023-01-22T18:31:15.523Z,32.35
2023-01-22T18:33:43.471Z,27.10
2023-01-22T18:36:13.304Z,32.38
2023-01-22T18:38:40.419Z,35.42
2023-01-22T18:41:09.196Z,30.67
2023-01-22T18:43:35.988Z,34.63
2023-01-22T18:46:05.422Z,34.50
2023-01-22T18:48:32.086Z,36.78
2023-01-22T18:50:58.673Z,41.92
2023-01-22T18:53:25.449Z,35.65
2023-01-22T18:55:52.007Z,33.58
2023-01-22T18:58:18.553Z,38.83
2023-01-22T19:00:45.053Z,33.83
2023-01-22T19:03:11.565Z,31.17
2023-01-22T19:05:39.347Z,32.55
2023-01-22T19:08:05.891Z,36.17
2023-01-22T19:10:32.405Z,29.42
2023-01-22T19:12:59.120Z,35.97
2023-01-22T19:15:25.678Z,28.58
2023-01-22T19:17:52.154Z,33.63
2023-01-22T19:20:18.700Z,31.27
2023-01-22T19:22:45.216Z,31.35
2023-01-22T19:25:11.693Z,30.50
2023-01-22T19:27:38.202Z,34.50
2023-01-22T19:30:06.012Z,29.58
2023-01-22T19:32:32.584Z,33.78
2023-01-22T19:34:59.149Z,28.35
2023-01-22T19:37:27.502Z,30.70
2023-01-22T19:39:54.025Z,34.63
2023-01-22T19:42:20.537Z,32.30
2023-01-22T19:44:47.130Z,31.48
2023-01-22T19:47:13.690Z,34.83
2023-01-22T19:49:40.264Z,33.58
2023-01-22T19:52:06.818Z,30.25
2023-01-22T19:54:34.437Z,31.67
2023-01-22T19:57:00.968Z,34.92
2023-01-22T19:59:27.497Z,34.03
2023-01-22T20:01:54.220Z,33.17
2023-01-22T20:04:26.550Z,31.33
2023-01-22T20:06:58.897Z,33.50
2023-01-22T20:09:25.497Z,31.73
2023-01-22T20:11:53.890Z,36.08
2023-01-22T20:14:28.258Z,33.42
2023-01-22T20:16:54.915Z,37.60
2023-01-22T20:19:21.452Z,32.30
2023-01-22T20:21:48.469Z,33.83
2023-01-22T20:24:15.184Z,35.10
2023-01-22T20:26:41.673Z,31.35
2023-01-22T20:29:08.228Z,33.38
2023-01-22T20:31:34.780Z,34.05
2023-01-22T20:34:01.321Z,35.35
2023-01-22T20:36:27.945Z,30.23
2023-01-22T20:38:54.833Z,36.55
2023-01-22T20:41:23.091Z,34.20
2023-01-22T20:43:49.645Z,34.35
2023-01-22T20:46:18.945Z,39.28
2023-01-22T20:48:46.295Z,36.63
2023-01-22T20:51:16.011Z,32.85
2023-01-22T20:53:43.409Z,33.80
2023-01-22T20:56:19.512Z,33.47
2023-01-22T20:58:46.000Z,34.78
2023-01-22T21:01:16.463Z,35.95
2023-01-22T21:03:43.780Z,33.58
2023-01-22T21:06:14.144Z,33.63
2023-01-22T21:08:42.198Z,47.25
2023-01-22T21:11:12.144Z,37.78
2023-01-22T21:13:39.107Z,31.95
2023-01-22T21:16:15.163Z,36.22
2023-01-22T21:18:42.474Z,31.35
2023-01-22T21:21:17.895Z,37.42
2023-01-22T21:23:46.361Z,36.83
2023-01-22T21:26:14.630Z,33.40
2023-01-22T21:28:41.576Z,34.50
2023-01-22T21:31:13.790Z,37.70
2023-01-22T21:33:40.795Z,29.42
2023-01-22T21:36:08.836Z,32.72
2023-01-22T21:38:35.930Z,34.50
2023-01-22T21:41:10.819Z,29.33
2023-01-22T21:43:37.384Z,35.17
2023-01-22T21:46:04.110Z,36.60
2023-01-22T21:48:30.721Z,37.58
2023-01-22T21:50:57.241Z,33.67
2023-01-22T21:53:23.732Z,39.13
2023-01-22T21:55:52.017Z,35.70
2023-01-22T21:58:19.423Z,34.38
2023-01-22T22:00:45.958Z,29.63
2023-01-22T22:03:12.519Z,34.08
2023-01-22T22:05:38.998Z,31.90
2023-01-22T22:08:06.356Z,34.15
2023-01-22T22:10:32.902Z,28.88
2023-01-22T22:12:59.482Z,29.85
2023-01-22T22:15:26.226Z,31.85
2023-01-22T22:17:52.720Z,31.88
2023-01-22T22:20:19.764Z,30.63
2023-01-22T22:22:46.526Z,28.42
2023-01-22T22:25:13.081Z,31.35
2023-01-22T22:27:39.582Z,38.63
2023-01-22T22:30:06.767Z,32.60
2023-01-22T22:32:33.316Z,30.88
2023-01-22T22:34:59.846Z,32.80
2023-01-22T22:37:26.339Z,35.17
2023-01-22T22:39:52.864Z,35.78
2023-01-22T22:42:19.404Z,31.85
2023-01-22T22:44:45.895Z,33.58
2023-01-22T22:47:12.398Z,31.00
2023-01-22T22:49:38.904Z,32.90
2023-01-22T22:52:05.431Z,32.15
2023-01-22T22:54:31.922Z,31.83
2023-01-22T22:56:58.404Z,32.95
2023-01-22T22:59:26.273Z,37.40
2023-01-22T23:01:52.848Z,31.73
2023-01-22T23:04:19.399Z,31.98
2023-01-22T23:06:46.759Z,32.88
2023-01-22T23:09:16.344Z,35.67
2023-01-22T23:11:43.301Z,33.47
2023-01-22T23:14:10.160Z,34.67
2023-01-22T23:16:40.134Z,34.63
2023-01-22T23:19:11.589Z,32.80
2023-01-22T23:21:38.084Z,36.83
2023-01-22T23:24:04.952Z,34.35
2023-01-22T23:26:31.481Z,30.83
2023-01-22T23:29:01.451Z,30.25
2023-01-22T23:31:30.075Z,31.35
2023-01-22T23:33:57.297Z,33.67
2023-01-22T23:36:24.422Z,35.60
2023-01-22T23:38:50.988Z,30.90
2023-01-22T23:41:19.253Z,39.50
2023-01-22T23:43:46.198Z,37.13
2023-01-22T23:46:15.618Z,41.42
2023-01-22T23:48:42.554Z,38.22
2023-01-22T23:51:10.244Z,41.55
2023-01-22T23:53:38.339Z,36.53
2023-01-22T23:56:05.566Z,39.55
2023-01-22T23:58:32.921Z,39.00
